Time;durP1;ratioP1;P1;durP2;ratioP2;P2;SDS_P1;SDS_P2;PMS_P1;PMS_P2;Temp;Humidity;BMP_temperature;BMP_pressure;BME280_temperature;BME280_humidity;BME280_pressure;Samples;Min_cycle;Max_cycle;Signal;HPM_P1;HPM_P2
2023/08/24 00:00:19;;;;;;;50.17;45.85;;;17.40;99.90;;;;;;5047485;28;20434;-62
2023/08/24 00:02:45;;;;;;;49.42;45.35;;;17.40;99.90;;;;;;5050036;28;20501;-62
2023/08/24 00:05:10;;;;;;;48.42;44.22;;;17.80;99.90;;;;;;5050135;28;20483;-62
2023/08/24 00:07:36;;;;;;;49.08;44.90;;;17.90;99.90;;;;;;5054570;28;20127;-62
2023/08/24 00:10:03;;;;;;;48.10;44.10;;;17.80;99.90;;;;;;5039218;28;20037;-62
2023/08/24 00:12:29;;;;;;;49.10;44.83;;;17.70;99.90;;;;;;5042506;28;20044;-62
2023/08/24 00:14:55;;;;;;;49.05;44.80;;;17.20;99.90;;;;;;5051291;28;20037;-62
2023/08/24 00:17:22;;;;;;;50.38;45.90;;;17.80;99.90;;;;;;5051348;28;20044;-62
2023/08/24 00:19:48;;;;;;;50.33;45.60;;;17.50;99.90;;;;;;5049250;28;20053;-62
2023/08/24 00:22:14;;;;;;;50.70;46.33;;;17.60;99.90;;;;;;5049967;28;20043;-62
2023/08/24 00:24:39;;;;;;;51.92;47.50;;;17.70;99.90;;;;;;5057905;28;20112;-62
2023/08/24 00:27:05;;;;;;;54.85;49.95;;;17.40;99.90;;;;;;5050018;28;20049;-62
2023/08/24 00:29:30;;;;;;;51.65;47.13;;;18.00;99.90;;;;;;5050350;28;20540;-62
2023/08/24 00:31:57;;;;;;;52.67;47.83;;;17.60;99.90;;;;;;5048273;28;20059;-62
2023/08/24 00:34:22;;;;;;;50.10;45.30;;;17.80;99.90;;;;;;5040810;28;20069;-62
2023/08/24 00:36:48;;;;;;;50.80;46.20;;;17.60;99.90;;;;;;5051821;28;20454;-62
2023/08/24 00:39:15;;;;;;;50.83;45.90;;;17.40;99.90;;;;;;5052693;28;20064;-62
2023/08/24 00:41:41;;;;;;;53.58;48.88;;;17.90;99.90;;;;;;5050942;28;20112;-62
2023/08/24 00:44:07;;;;;;;54.42;49.22;;;17.70;99.90;;;;;;5048728;28;20477;-62
2023/08/24 00:46:34;;;;;;;54.35;49.35;;;17.30;99.90;;;;;;5051777;28;20047;-62
2023/08/24 00:49:00;;;;;;;53.53;48.85;;;18.20;99.90;;;;;;5050020;28;20039;-62
2023/08/24 00:51:25;;;;;;;55.45;49.95;;;18.10;99.90;;;;;;5048321;28;20044;-62
2023/08/24 00:53:52;;;;;;;53.88;48.92;;;18.20;99.90;;;;;;5048873;28;20120;-62
2023/08/24 00:56:19;;;;;;;53.22;48.25;;;18.20;99.90;;;;;;5048992;28;20482;-64
2023/08/24 00:58:47;;;;;;;53.33;48.75;;;17.80;99.90;;;;;;5054073;28;20072;-64
2023/08/24 01:01:13;;;;;;;54.10;48.92;;;18.70;99.90;;;;;;5047583;28;20048;-63
2023/08/24 01:03:38;;;;;;;52.47;48.05;;;18.80;99.90;;;;;;5049956;28;20078;-63
2023/08/24 01:06:04;;;;;;;53.50;48.53;;;18.40;99.90;;;;;;5048979;28;20066;-63
2023/08/24 01:08:30;;;;;;;54.03;48.45;;;18.80;99.90;;;;;;5049452;28;20088;-64
2023/08/24 01:11:28;;;;;;;54.17;49.13;;;18.00;99.90;;;;;;5050458;28;20033;-64
2023/08/24 01:14:09;;;;;;;51.83;46.58;;;18.80;99.90;;;;;;5053055;28;20056;-63
2023/08/24 01:16:40;;;;;;;54.10;48.90;;;18.40;99.90;;;;;;5048843;28;20048;-64
2023/08/24 01:19:10;;;;;;;56.38;51.00;;;18.50;99.90;;;;;;5049910;28;20048;-64
2023/08/24 01:21:36;;;;;;;57.00;51.53;;;19.10;99.90;;;;;;5048115;28;20040;-63
2023/08/24 01:24:14;;;;;;;57.75;51.40;;;19.20;99.90;;;;;;5050228;28;20032;-64
2023/08/24 01:26:41;;;;;;;57.00;51.20;;;18.50;99.90;;;;;;5047471;28;20095;-65
2023/08/24 01:29:07;;;;;;;57.25;51.95;;;18.30;99.90;;;;;;5049621;28;20041;-63
2023/08/24 01:31:32;;;;;;;58.75;53.40;;;19.20;99.90;;;;;;5047860;28;20132;-64
2023/08/24 01:33:59;;;;;;;55.72;50.35;;;18.50;99.90;;;;;;5051654;28;20120;-64
2023/08/24 01:36:25;;;;;;;56.67;50.95;;;18.90;99.90;;;;;;5049872;28;20111;-64
2023/08/24 01:39:09;;;;;;;55.90;50.25;;;19.50;99.90;;;;;;5046578;28;20451;-64
2023/08/24 01:41:42;;;;;;;54.95;49.40;;;19.20;99.90;;;;;;5043471;28;20055;-64
2023/08/24 01:44:12;;;;;;;54.40;49.15;;;19.10;99.90;;;;;;5052632;28;20040;-63
2023/08/24 01:46:39;;;;;;;54.38;49.28;;;19.60;99.90;;;;;;5048844;28;20094;-64
2023/08/24 01:49:07;;;;;;;53.80;48.60;;;19.30;99.90;;;;;;5047976;28;20045;-64
2023/08/24 01:51:34;;;;;;;59.30;51.00;;;19.00;99.90;;;;;;5042470;28;20078;-63
2023/08/24 01:54:00;;;;;;;53.80;48.53;;;19.50;99.90;;;;;;5043956;28;20040;-63
2023/08/24 01:56:26;;;;;;;56.50;50.78;;;19.50;99.90;;;;;;5047023;28;20041;-64
2023/08/24 01:58:51;;;;;;;52.95;47.65;;;18.80;99.90;;;;;;5045558;28;20402;-64
2023/08/24 02:01:17;;;;;;;51.50;46.28;;;18.80;99.90;;;;;;5044561;28;20064;-64
2023/08/24 02:03:43;;;;;;;49.95;45.33;;;18.80;99.90;;;;;;5047178;28;20045;-64
2023/08/24 02:06:08;;;;;;;50.38;45.03;;;18.90;99.90;;;;;;5053250;28;20061;-60
2023/08/24 02:08:34;;;;;;;50.40;45.78;;;18.80;99.90;;;;;;5044136;28;20037;-60
2023/08/24 02:11:00;;;;;;;48.55;43.85;;;18.60;99.90;;;;;;5049095;28;20110;-60
2023/08/24 02:13:25;;;;;;;49.78;45.28;;;18.90;99.90;;;;;;5049954;28;20044;-60
2023/08/24 02:16:00;;;;;;;49.38;44.88;;;18.80;99.90;;;;;;5049162;28;20401;-60
2023/08/24 02:18:25;;;;;;;50.75;45.60;;;19.30;99.90;;;;;;5053400;28;20533;-59
2023/08/24 02:20:51;;;;;;;50.85;46.10;;;19.20;99.90;;;;;;5057440;28;20065;-60
2023/08/24 02:23:16;;;;;;;50.30;45.90;;;18.90;99.90;;;;;;5046811;28;20045;-60
2023/08/24 02:25:43;;;;;;;50.30;45.80;;;18.80;99.90;;;;;;5052847;28;20051;-60
2023/08/24 02:28:09;;;;;;;51.47;46.55;;;18.40;99.90;;;;;;5044456;28;20457;-60
2023/08/24 02:30:37;;;;;;;49.55;45.25;;;18.90;99.90;;;;;;5044628;28;20033;-59
2023/08/24 02:33:03;;;;;;;50.00;45.25;;;18.70;99.90;;;;;;5047617;28;20041;-60
2023/08/24 02:35:29;;;;;;;49.85;45.40;;;18.10;99.90;;;;;;5049815;28;20033;-60
2023/08/24 02:37:56;;;;;;;52.28;47.28;;;18.10;99.90;;;;;;5041693;28;20384;-59
2023/08/24 02:40:22;;;;;;;51.30;46.45;;;18.30;99.90;;;;;;5049268;28;20084;-58
2023/08/24 02:42:48;;;;;;;50.55;45.58;;;18.50;99.90;;;;;;5050254;28;20502;-60
2023/08/24 02:45:13;;;;;;;52.13;46.95;;;18.90;99.90;;;;;;5053371;28;20045;-61
2023/08/24 02:47:39;;;;;;;50.70;45.97;;;18.70;99.90;;;;;;5044460;28;20040;-59
2023/08/24 02:50:06;;;;;;;51.50;46.30;;;18.60;99.90;;;;;;5052605;28;20044;-60
2023/08/24 02:52:32;;;;;;;50.95;46.25;;;18.00;99.90;;;;;;5048536;28;20403;-59
2023/08/24 02:54:58;;;;;;;49.50;44.63;;;18.40;99.90;;;;;;5056261;28;20631;-60
2023/08/24 02:57:23;;;;;;;50.60;45.60;;;18.50;99.90;;;;;;5049606;28;20036;-60
2023/08/24 02:59:49;;;;;;;49.50;44.92;;;18.20;99.90;;;;;;5052290;28;20053;-60
2023/08/24 03:02:15;;;;;;;50.05;45.15;;;18.70;99.90;;;;;;5049481;28;20513;-59
2023/08/24 03:04:40;;;;;;;47.50;43.20;;;19.10;99.90;;;;;;5046436;28;20066;-59
2023/08/24 03:07:08;;;;;;;47.78;43.22;;;18.00;99.90;;;;;;5048875;28;20090;-60
2023/08/24 03:09:35;;;;;;;49.92;45.53;;;17.80;99.90;;;;;;5048501;28;20049;-60
2023/08/24 03:12:00;;;;;;;50.53;45.83;;;18.40;99.90;;;;;;5047322;28;20037;-60
2023/08/24 03:14:26;;;;;;;50.70;45.97;;;17.90;99.90;;;;;;5056902;28;20399;-60
2023/08/24 03:16:51;;;;;;;51.40;45.92;;;17.90;99.90;;;;;;5050450;28;20479;-61
2023/08/24 03:19:18;;;;;;;50.38;45.55;;;18.50;99.90;;;;;;5059567;28;20399;-61
2023/08/24 03:21:44;;;;;;;48.63;43.65;;;17.90;99.90;;;;;;5045616;28;20044;-61
2023/08/24 03:24:09;;;;;;;49.97;45.40;;;18.10;99.90;;;;;;5053720;28;20044;-61
2023/08/24 03:26:35;;;;;;;50.47;45.58;;;18.20;99.90;;;;;;5044447;28;20044;-61
2023/08/24 03:29:00;;;;;;;50.83;45.88;;;17.80;99.90;;;;;;5051773;28;20041;-62
2023/08/24 03:31:26;;;;;;;49.15;44.65;;;18.60;99.90;;;;;;5051086;28;20506;-62
2023/08/24 03:33:52;;;;;;;50.70;45.90;;;18.80;99.90;;;;;;5060262;28;20025;-61
2023/08/24 03:36:18;;;;;;;50.88;46.13;;;18.50;99.90;;;;;;5047612;28;20064;-62
2023/08/24 03:38:45;;;;;;;51.22;46.30;;;17.90;99.90;;;;;;5051716;28;20040;-61
2023/08/24 03:41:10;;;;;;;50.80;46.08;;;18.30;99.90;;;;;;5050250;28;20053;-62
2023/08/24 03:43:37;;;;;;;50.10;45.42;;;18.40;99.90;;;;;;5048972;28;20041;-61
2023/08/24 03:46:06;;;;;;;49.33;44.92;;;18.80;99.90;;;;;;5049297;28;20037;-62
2023/08/24 03:48:32;;;;;;;51.40;46.78;;;18.50;99.90;;;;;;5052104;28;20092;-61
2023/08/24 03:50:58;;;;;;;50.15;45.47;;;19.00;99.90;;;;;;5058014;28;20121;-62
2023/08/24 03:53:24;;;;;;;49.65;44.88;;;18.30;99.90;;;;;;5050395;28;20530;-61
2023/08/24 03:55:51;;;;;;;51.85;46.95;;;18.70;99.90;;;;;;5044768;28;20047;-62
2023/08/24 03:58:17;;;;;;;50.38;45.70;;;18.90;99.90;;;;;;5049899;28;20033;-62
2023/08/24 04:00:46;;;;;;;49.92;45.15;;;18.60;99.90;;;;;;5048792;28;20118;-62
2023/08/24 04:03:12;;;;;;;49.83;45.28;;;19.00;99.90;;;;;;5048845;28;20049;-62
2023/08/24 04:05:38;;;;;;;49.47;44.65;;;18.20;99.90;;;;;;5051863;28;20041;-61
2023/08/24 04:08:04;;;;;;;48.88;44.30;;;19.00;99.90;;;;;;5045735;28;20083;-61
2023/08/24 04:10:30;;;;;;;45.97;41.72;;;18.00;99.90;;;;;;5049931;28;20424;-62
2023/08/24 04:12:56;;;;;;;49.13;44.53;;;18.00;99.90;;;;;;5047936;28;20028;-62
2023/08/24 04:15:22;;;;;;;50.53;45.75;;;17.90;99.90;;;;;;5048888;28;20068;-61
2023/08/24 04:17:48;;;;;;;50.53;45.70;;;17.80;99.90;;;;;;5045301;28;20136;-62
2023/08/24 04:20:14;;;;;;;50.17;45.28;;;17.90;99.90;;;;;;5052266;28;20124;-62
2023/08/24 04:22:39;;;;;;;48.78;44.25;;;18.20;99.90;;;;;;5045180;28;20047;-61
2023/08/24 04:25:06;;;;;;;48.35;43.70;;;18.50;99.90;;;;;;5053129;28;20124;-62
2023/08/24 04:27:32;;;;;;;50.38;45.38;;;18.70;99.90;;;;;;5043326;28;20038;-62
2023/08/24 04:29:58;;;;;;;50.58;45.40;;;18.60;99.90;;;;;;5049792;28;20048;-62
2023/08/24 04:32:24;;;;;;;50.78;46.10;;;18.90;99.90;;;;;;5045145;28;20041;-62
2023/08/24 04:34:49;;;;;;;50.92;46.15;;;18.80;99.90;;;;;;5066311;28;20048;-62
2023/08/24 04:37:15;;;;;;;50.85;45.78;;;18.60;99.90;;;;;;5048832;28;20029;-62
2023/08/24 04:39:40;;;;;;;51.03;46.35;;;17.80;99.90;;;;;;5050635;28;20437;-62
2023/08/24 04:42:06;;;;;;;49.00;44.38;;;18.70;99.90;;;;;;5043961;28;20045;-62
2023/08/24 04:44:32;;;;;;;50.30;45.55;;;17.70;99.90;;;;;;5054037;28;20064;-62
2023/08/24 04:46:58;;;;;;;52.40;47.70;;;18.80;99.90;;;;;;5050343;28;20044;-62
2023/08/24 04:49:24;;;;;;;55.03;48.10;;;18.80;99.90;;;;;;5051259;28;20037;-62
2023/08/24 04:51:49;;;;;;;53.00;47.60;;;18.80;99.90;;;;;;5048326;28;20040;-62
2023/08/24 04:54:15;;;;;;;52.45;47.13;;;18.50;99.90;;;;;;5057871;28;20407;-62
2023/08/24 04:56:41;;;;;;;52.40;46.97;;;18.70;99.90;;;;;;5049773;28;20106;-62
2023/08/24 04:59:07;;;;;;;53.13;48.08;;;17.50;99.90;;;;;;5037292;28;20059;-62
2023/08/24 05:01:36;;;;;;;51.35;46.38;;;17.60;99.90;;;;;;5050717;28;20040;-62
2023/08/24 05:04:02;;;;;;;50.03;45.13;;;17.70;99.90;;;;;;5044954;28;20077;-62
2023/08/24 05:06:28;;;;;;;51.67;46.65;;;18.60;99.90;;;;;;5048516;28;20071;-62
2023/08/24 05:08:54;;;;;;;52.35;47.28;;;18.60;99.90;;;;;;5044128;28;20040;-62
2023/08/24 05:11:24;;;;;;;51.55;46.75;;;17.40;99.90;;;;;;5047107;28;20037;-62
2023/08/24 05:13:50;;;;;;;53.05;48.05;;;17.50;99.90;;;;;;5042807;28;20074;-62
2023/08/24 05:16:16;;;;;;;51.03;45.83;;;18.80;99.90;;;;;;5042994;28;20032;-62
2023/08/24 05:18:41;;;;;;;50.03;45.17;;;17.70;99.90;;;;;;5058532;28;20145;-62
2023/08/24 05:21:07;;;;;;;52.08;46.95;;;17.80;99.90;;;;;;5050082;28;20045;-62
2023/08/24 05:23:33;;;;;;;50.47;45.78;;;18.20;99.90;;;;;;5048256;28;20051;-62
2023/08/24 05:26:00;;;;;;;50.22;45.38;;;17.60;99.90;;;;;;5044592;28;20052;-62
2023/08/24 05:28:27;;;;;;;50.22;45.67;;;18.80;99.90;;;;;;5041199;28;20418;-62
2023/08/24 05:30:53;;;;;;;52.15;47.00;;;17.60;99.90;;;;;;5046880;28;20166;-63
2023/08/24 05:33:20;;;;;;;51.95;47.47;;;17.70;99.90;;;;;;5039355;28;20521;-62
2023/08/24 05:35:46;;;;;;;51.22;46.53;;;17.90;99.90;;;;;;5044263;28;20044;-64
2023/08/24 05:38:13;;;;;;;50.90;46.17;;;19.00;99.90;;;;;;5038134;28;20416;-65
2023/08/24 05:40:39;;;;;;;49.38;44.53;;;17.80;99.90;;;;;;5048580;28;20431;-64
2023/08/24 05:43:04;;;;;;;50.92;46.05;;;18.70;99.90;;;;;;5050534;28;20159;-64
2023/08/24 05:45:30;;;;;;;51.50;46.90;;;19.00;99.90;;;;;;5044673;28;20041;-63
2023/08/24 05:47:55;;;;;;;52.92;47.90;;;18.20;99.90;;;;;;5048538;28;20045;-64
2023/08/24 05:50:21;;;;;;;50.67;45.72;;;18.90;99.90;;;;;;5055825;28;20052;-63
2023/08/24 05:52:47;;;;;;;52.70;47.88;;;18.40;99.90;;;;;;5046106;28;20528;-64
2023/08/24 05:55:12;;;;;;;52.55;47.30;;;18.10;99.90;;;;;;5039664;28;20083;-64
2023/08/24 05:57:38;;;;;;;51.58;46.97;;;18.60;99.90;;;;;;5042841;28;20025;-63
2023/08/24 06:00:09;;;;;;;52.65;47.42;;;19.40;99.90;;;;;;5044426;28;20067;-65
2023/08/24 06:02:35;;;;;;;53.90;48.80;;;18.80;99.90;;;;;;5041652;28;20537;-64
2023/08/24 06:05:01;;;;;;;51.97;47.13;;;18.40;99.90;;;;;;5045552;28;20553;-63
2023/08/24 06:07:27;;;;;;;51.85;46.63;;;18.90;99.90;;;;;;5040522;28;20191;-64
2023/08/24 06:09:52;;;;;;;52.97;47.95;;;19.00;99.90;;;;;;5042890;28;20406;-69
2023/08/24 06:12:18;;;;;;;53.10;48.20;;;19.60;99.90;;;;;;5044319;28;20476;-63
2023/08/24 06:14:44;;;;;;;50.72;45.50;;;18.80;99.90;;;;;;5034621;28;20134;-65
2023/08/24 06:17:09;;;;;;;53.90;48.95;;;19.90;99.90;;;;;;5071240;28;20029;-66
2023/08/24 06:19:35;;;;;;;53.85;48.85;;;20.00;99.90;;;;;;5035877;28;20056;-66
2023/08/24 06:22:00;;;;;;;50.60;46.05;;;19.90;99.90;;;;;;5041745;28;20114;-66
2023/08/24 06:24:26;;;;;;;49.72;45.10;;;19.60;99.90;;;;;;5043909;28;20037;-63
2023/08/24 06:26:51;;;;;;;50.88;46.30;;;19.90;99.90;;;;;;5045716;28;20025;-63
2023/08/24 06:29:17;;;;;;;51.85;46.88;;;20.40;99.90;;;;;;5044454;28;20102;-65
2023/08/24 06:31:42;;;;;;;52.83;47.75;;;19.60;99.90;;;;;;5046699;28;20159;-64
2023/08/24 06:34:08;;;;;;;50.13;45.25;;;19.70;99.90;;;;;;5049813;28;20029;-63
2023/08/24 06:36:34;;;;;;;52.03;47.03;;;20.30;99.90;;;;;;5044463;28;20037;-64
2023/08/24 06:38:59;;;;;;;52.22;47.25;;;20.60;99.90;;;;;;5051444;28;20040;-64
2023/08/24 06:41:25;;;;;;;50.72;45.72;;;19.70;99.90;;;;;;5052603;28;20120;-63
2023/08/24 06:43:53;;;;;;;51.55;46.45;;;20.70;99.90;;;;;;5054780;28;20043;-63
2023/08/24 06:46:19;;;;;;;48.58;44.08;;;20.90;99.90;;;;;;5064774;28;20170;-62
2023/08/24 06:48:45;;;;;;;53.50;48.40;;;20.90;99.90;;;;;;5046466;28;20507;-62
2023/08/24 06:51:11;;;;;;;52.42;47.15;;;20.80;99.90;;;;;;5048801;28;20573;-62
2023/08/24 06:53:37;;;;;;;50.08;45.25;;;20.80;99.90;;;;;;5051201;28;20082;-62
2023/08/24 06:56:03;;;;;;;49.75;45.05;;;21.20;99.90;;;;;;5049253;28;20550;-62
2023/08/24 06:58:29;;;;;;;47.13;42.72;;;21.10;99.90;;;;;;5048795;28;20079;-62
2023/08/24 07:00:55;;;;;;;48.35;43.85;;;20.50;99.90;;;;;;5047571;28;20063;-62
2023/08/24 07:03:21;;;;;;;45.92;41.55;;;20.60;99.90;;;;;;5048162;28;20040;-62
2023/08/24 07:05:47;;;;;;;44.58;40.50;;;20.80;99.90;;;;;;5049860;28;20033;-62
2023/08/24 07:08:13;;;;;;;43.95;39.35;;;20.90;99.90;;;;;;5049437;28;20037;-62
2023/08/24 07:10:38;;;;;;;42.22;38.38;;;21.00;99.90;;;;;;5030475;28;20041;-62
2023/08/24 07:13:07;;;;;;;45.63;41.38;;;21.50;99.90;;;;;;5040276;28;20045;-62
2023/08/24 07:15:34;;;;;;;42.75;38.65;;;21.20;99.90;;;;;;5043628;28;20033;-62
2023/08/24 07:18:01;;;;;;;38.95;35.35;;;21.90;99.90;;;;;;5059091;28;20080;-62
2023/08/24 07:20:26;;;;;;;38.28;34.72;;;21.90;99.90;;;;;;5045497;28;20625;-62
2023/08/24 07:22:53;;;;;;;36.78;33.60;;;22.10;99.90;;;;;;5043346;28;20171;-62
2023/08/24 07:25:20;;;;;;;38.15;34.55;;;22.00;99.90;;;;;;5041629;28;20456;-62
2023/08/24 07:27:46;;;;;;;36.00;32.78;;;22.00;99.90;;;;;;5045964;28;20028;-62
2023/08/24 07:30:12;;;;;;;34.03;31.10;;;22.50;99.90;;;;;;5049356;28;20055;-62
2023/08/24 07:32:37;;;;;;;28.25;25.63;;;22.60;99.90;;;;;;5039110;28;20032;-62
2023/08/24 07:35:03;;;;;;;27.35;24.73;;;22.80;99.90;;;;;;5043508;28;20537;-62
2023/08/24 07:37:29;;;;;;;27.27;24.73;;;22.90;99.90;;;;;;5049307;28;20041;-62
2023/08/24 07:39:55;;;;;;;27.30;24.83;;;23.10;99.90;;;;;;5045269;28;20103;-62
2023/08/24 07:42:21;;;;;;;25.95;23.60;;;23.80;99.90;;;;;;5050610;28;20048;-62
2023/08/24 07:44:47;;;;;;;22.30;20.58;;;23.70;99.90;;;;;;5051019;28;20083;-62
2023/08/24 07:47:13;;;;;;;24.02;21.83;;;23.80;99.90;;;;;;5051311;28;20080;-62
2023/08/24 07:49:43;;;;;;;21.15;19.55;;;23.70;99.90;;;;;;5046996;28;20048;-62
2023/08/24 07:52:09;;;;;;;22.23;20.33;;;23.90;99.90;;;;;;5052912;28;20044;-62
2023/08/24 07:54:35;;;;;;;20.17;18.05;;;24.20;99.90;;;;;;5048581;28;20505;-62
2023/08/24 07:57:01;;;;;;;20.33;18.27;;;24.40;1.00;;;;;;5050104;28;20049;-64
2023/08/24 07:59:26;;;;;;;19.00;17.40;;;24.60;1.00;;;;;;5045112;28;20400;-64
2023/08/24 08:01:52;;;;;;;17.35;15.85;;;24.90;99.90;;;;;;5037355;28;20056;-64
2023/08/24 08:04:17;;;;;;;18.67;15.95;;;25.00;99.90;;;;;;5049873;28;20105;-64
2023/08/24 08:06:43;;;;;;;17.58;15.98;;;25.00;99.90;;;;;;5047806;28;20048;-64
2023/08/24 08:09:08;;;;;;;18.55;16.27;;;25.10;99.90;;;;;;5055061;28;20033;-64
2023/08/24 08:11:34;;;;;;;17.58;15.55;;;25.10;1.00;;;;;;5047614;28;20033;-64
2023/08/24 08:14:00;;;;;;;16.92;15.57;;;25.30;99.90;;;;;;5051703;28;21900;-64
2023/08/24 08:16:26;;;;;;;18.40;16.75;;;25.50;99.90;;;;;;5052206;28;20082;-63
2023/08/24 08:18:51;;;;;;;18.27;16.80;;;25.60;89.40;;;;;;5050110;28;20075;-65
2023/08/24 08:21:17;;;;;;;16.77;15.40;;;25.60;1.00;;;;;;5052010;28;20502;-64
2023/08/24 08:23:45;;;;;;;18.35;16.50;;;25.90;1.00;;;;;;5051651;28;20033;-64
2023/08/24 08:26:11;;;;;;;16.65;15.25;;;25.90;1.00;;;;;;5049536;28;20113;-65
2023/08/24 08:28:36;;;;;;;19.10;16.38;;;26.00;99.90;;;;;;5052027;28;20053;-65
2023/08/24 08:31:03;;;;;;;18.23;16.73;;;26.20;99.90;;;;;;5048782;28;20086;-64
2023/08/24 08:33:29;;;;;;;20.35;18.65;;;26.70;99.90;;;;;;5052570;28;20044;-64
2023/08/24 08:35:55;;;;;;;22.63;20.45;;;26.20;99.90;;;;;;5048260;28;20564;-64
2023/08/24 08:38:25;;;;;;;21.92;20.02;;;26.00;99.90;;;;;;5048109;28;20045;-64
2023/08/24 08:41:02;;;;;;;23.48;21.10;;;25.80;99.90;;;;;;5048505;28;20196;-64
2023/08/24 08:43:28;;;;;;;21.75;19.95;;;25.70;99.90;;;;;;5041074;28;20098;-64
2023/08/24 08:45:56;;;;;;;23.25;21.23;;;25.90;99.90;;;;;;5045840;28;20145;-63
2023/08/24 08:48:22;;;;;;;22.15;20.20;;;25.90;99.90;;;;;;5041254;28;20131;-64
2023/08/24 08:50:55;;;;;;;24.88;22.63;;;26.00;99.90;;;;;;5040349;28;20044;-65
2023/08/24 08:53:22;;;;;;;26.90;24.50;;;26.00;99.90;;;;;;5049328;28;20052;-65
2023/08/24 08:55:54;;;;;;;26.98;24.38;;;25.90;99.90;;;;;;5046525;28;20045;-65
2023/08/24 08:58:21;;;;;;;32.53;27.00;;;25.50;99.90;;;;;;5045024;28;20037;-64
2023/08/24 09:00:47;;;;;;;29.98;27.02;;;25.40;99.90;;;;;;5050602;28;20107;-64
2023/08/24 09:03:14;;;;;;;29.25;26.40;;;25.10;99.90;;;;;;5042513;28;20041;-64
2023/08/24 09:05:40;;;;;;;29.60;26.70;;;24.90;1.00;;;;;;5051405;28;20036;-64
2023/08/24 09:08:06;;;;;;;30.33;27.52;;;24.70;1.00;;;;;;5048128;28;20037;-64
2023/08/24 09:10:32;;;;;;;33.55;30.35;;;24.60;1.00;;;;;;5043936;28;20094;-63
2023/08/24 09:12:57;;;;;;;33.10;30.00;;;24.50;90.20;;;;;;5044135;28;20045;-64
2023/08/24 09:15:27;;;;;;;35.85;32.33;;;24.60;99.90;;;;;;5046301;28;20048;-63
2023/08/24 09:17:54;;;;;;;36.83;33.35;;;24.40;99.90;;;;;;5041423;28;20032;-63
2023/08/24 09:20:20;;;;;;;35.65;32.13;;;24.40;99.90;;;;;;5082620;28;20071;-63
2023/08/24 09:22:46;;;;;;;37.10;33.20;;;24.40;1.00;;;;;;5046929;28;20063;-63
2023/08/24 09:25:11;;;;;;;36.45;33.00;;;24.40;1.00;;;;;;5047758;28;20037;-63
2023/08/24 09:27:37;;;;;;;35.53;32.03;;;24.10;92.50;;;;;;5044973;28;20075;-63
2023/08/24 09:30:05;;;;;;;34.38;31.25;;;24.10;99.90;;;;;;5049529;28;20037;-63
2023/08/24 09:32:32;;;;;;;36.25;32.58;;;24.20;99.90;;;;;;5048044;28;20037;-63
2023/08/24 09:35:08;;;;;;;36.55;33.05;;;24.10;1.00;;;;;;5044162;28;20037;-63
2023/08/24 09:37:35;;;;;;;36.63;33.20;;;24.10;1.00;;;;;;5047164;28;20037;-63
2023/08/24 09:40:08;;;;;;;36.58;32.97;;;23.80;99.90;;;;;;5077839;28;20052;-63
2023/08/24 09:42:41;;;;;;;41.17;36.90;;;24.00;99.90;;;;;;5045546;28;20053;-64
2023/08/24 09:45:11;;;;;;;41.75;37.40;;;23.70;99.90;;;;;;5040536;28;20040;-63
2023/08/24 09:47:37;;;;;;;42.58;38.00;;;23.80;1.00;;;;;;5041274;28;20049;-65
2023/08/24 09:50:04;;;;;;;42.33;38.03;;;23.70;99.90;;;;;;5041575;28;20113;-63
2023/08/24 09:52:34;;;;;;;43.10;38.70;;;23.50;1.00;;;;;;5051145;28;20100;-63
2023/08/24 09:55:07;;;;;;;44.72;40.28;;;23.70;99.90;;;;;;5055127;28;20036;-63
2023/08/24 09:57:39;;;;;;;47.22;42.65;;;23.30;1.00;;;;;;5044866;28;20091;-63
2023/08/24 10:00:10;;;;;;;48.38;43.67;;;23.40;99.90;;;;;;5046362;28;20083;-63
2023/08/24 10:02:38;;;;;;;48.97;43.95;;;23.40;1.00;;;;;;5045301;28;20059;-63
2023/08/24 10:05:05;;;;;;;48.95;43.65;;;23.10;1.00;;;;;;5038259;28;20045;-63
2023/08/24 10:07:31;;;;;;;48.50;43.40;;;23.40;99.90;;;;;;5047847;28;20033;-63
2023/08/24 10:09:59;;;;;;;47.75;43.13;;;23.30;99.90;;;;;;5053440;28;20118;-63
2023/08/24 10:12:28;;;;;;;46.97;42.60;;;23.20;99.90;;;;;;5050596;28;20128;-63
2023/08/24 10:15:00;;;;;;;49.58;44.67;;;22.90;1.00;;;;;;5051163;28;20033;-63
2023/08/24 10:17:26;;;;;;;50.17;44.92;;;23.00;91.00;;;;;;5048686;28;20045;-64
2023/08/24 10:19:53;;;;;;;49.10;44.28;;;22.90;99.90;;;;;;5052630;28;20533;-64
2023/08/24 10:22:19;;;;;;;49.38;44.60;;;23.10;99.90;;;;;;5053444;28;20173;-64
2023/08/24 10:24:47;;;;;;;47.47;42.88;;;23.20;99.90;;;;;;5049174;28;20043;-64
2023/08/24 10:27:14;;;;;;;47.58;42.90;;;22.80;99.90;;;;;;5050675;28;20041;-65
2023/08/24 10:29:40;;;;;;;48.55;43.58;;;23.00;99.90;;;;;;5049152;28;20045;-64
2023/08/24 10:32:06;;;;;;;45.55;41.15;;;23.20;99.90;;;;;;5054575;28;20789;-65
2023/08/24 10:34:32;;;;;;;48.55;43.50;;;23.10;99.90;;;;;;5051282;28;20147;-65
2023/08/24 10:37:08;;;;;;;48.08;43.55;;;23.00;99.90;;;;;;5053138;28;20155;-65
2023/08/24 10:39:35;;;;;;;;;;;22.90;99.90;;;;;;5052853;28;20060;-65
2023/08/24 10:42:01;;;;;;;47.08;42.53;;;22.50;99.90;;;;;;5052109;28;19925;-65
2023/08/24 10:44:35;;;;;;;47.28;42.38;;;22.40;99.90;;;;;;5048472;28;20499;-65
2023/08/24 10:47:21;;;;;;;45.72;41.15;;;22.60;99.90;;;;;;5046452;28;20041;-65
2023/08/24 10:49:56;;;;;;;46.75;41.95;;;23.10;99.90;;;;;;5053491;28;20049;-66
2023/08/24 10:52:33;;;;;;;44.92;40.53;;;22.20;99.90;;;;;;5050630;28;20063;-66
2023/08/24 10:55:02;;;;;;;45.42;40.85;;;22.60;99.90;;;;;;5048471;28;20403;-65
2023/08/24 10:57:35;;;;;;;45.13;40.88;;;22.70;99.90;;;;;;5048623;28;20409;-65
2023/08/24 11:00:12;;;;;;;43.78;39.65;;;23.10;99.90;;;;;;5049639;28;20051;-65
2023/08/24 11:02:48;;;;;;;43.85;39.45;;;23.10;99.90;;;;;;5047486;28;20160;-65
2023/08/24 11:05:16;;;;;;;46.45;42.03;;;22.90;99.90;;;;;;5041837;28;20396;-65
2023/08/24 11:07:56;;;;;;;45.40;40.90;;;23.10;99.90;;;;;;5061358;28;20060;-65
2023/08/24 11:10:46;;;;;;;45.65;41.30;;;23.10;99.90;;;;;;5051558;28;20056;-66
2023/08/24 11:13:15;;;;;;;44.50;40.05;;;21.90;99.90;;;;;;5040513;28;20049;-66
2023/08/24 11:15:47;;;;;;;44.88;40.15;;;23.30;99.90;;;;;;5050248;28;20040;-66
2023/08/24 11:18:19;;;;;;;42.95;38.70;;;23.30;99.90;;;;;;5080417;28;20040;-67
2023/08/24 11:20:46;;;;;;;48.10;40.10;;;23.40;99.90;;;;;;5045391;28;20166;-67
2023/08/24 11:23:12;;;;;;;47.58;41.38;;;21.90;99.90;;;;;;5048451;28;20123;-67
2023/08/24 11:25:38;;;;;;;45.08;40.25;;;21.80;99.90;;;;;;5046188;28;20037;-66
2023/08/24 11:28:04;;;;;;;53.33;42.25;;;23.50;99.90;;;;;;5048854;28;20078;-66
2023/08/24 11:30:34;;;;;;;46.30;41.55;;;21.80;99.90;;;;;;5044402;28;20037;-66
2023/08/24 11:33:00;;;;;;;47.45;42.80;;;23.30;99.90;;;;;;5046625;28;20166;-66
2023/08/24 11:35:26;;;;;;;47.05;42.25;;;22.10;99.90;;;;;;5047403;28;20039;-66
2023/08/24 11:37:53;;;;;;;48.63;43.65;;;21.20;99.90;;;;;;5040898;28;20675;-66
2023/08/24 11:40:20;;;;;;;47.95;42.83;;;21.60;99.90;;;;;;5046380;28;20041;-66
2023/08/24 11:42:53;;;;;;;48.25;43.05;;;23.70;99.90;;;;;;5041086;28;20037;-67
2023/08/24 11:45:18;;;;;;;47.60;42.70;;;23.30;99.90;;;;;;5042374;28;20053;-67
2023/08/24 11:47:44;;;;;;;48.83;43.90;;;21.70;99.90;;;;;;5044022;28;20594;-67
2023/08/24 11:50:09;;;;;;;49.05;43.80;;;23.60;99.90;;;;;;5046154;28;20049;-68
2023/08/24 11:52:42;;;;;;;50.67;45.60;;;21.70;99.90;;;;;;5043215;28;20048;-68
2023/08/24 11:55:09;;;;;;;51.45;45.95;;;23.10;99.90;;;;;;5032494;28;20437;-67
2023/08/24 11:57:37;;;;;;;52.92;47.33;;;20.90;99.90;;;;;;5039862;28;20040;-67
2023/08/24 12:00:04;;;;;;;54.38;49.17;;;21.00;99.90;;;;;;5006104;28;1036242;-68
2023/08/24 12:02:31;;;;;;;54.20;48.58;;;21.00;99.90;;;;;;5080147;28;20044;-68
2023/08/24 12:04:58;;;;;;;52.85;47.10;;;24.20;99.90;;;;;;5046438;28;20787;-68
2023/08/24 12:07:23;;;;;;;52.33;46.90;;;21.10;99.90;;;;;;5038718;28;20056;-67
2023/08/24 12:09:52;;;;;;;54.15;48.45;;;23.60;99.90;;;;;;5038660;28;21270;-67
2023/08/24 12:12:20;;;;;;;54.85;49.13;;;22.60;99.90;;;;;;5043286;28;20049;-67
2023/08/24 12:14:47;;;;;;;53.90;48.20;;;24.00;99.90;;;;;;5042961;28;20049;-67
2023/08/24 12:17:13;;;;;;;54.40;48.90;;;24.10;99.90;;;;;;5038832;28;20064;-68
2023/08/24 12:19:46;;;;;;;57.63;51.88;;;20.90;99.90;;;;;;5038475;28;20055;-70
2023/08/24 12:22:16;;;;;;;56.83;51.05;;;20.80;99.90;;;;;;5079097;28;20501;-69
2023/08/24 12:24:48;;;;;;;54.67;49.25;;;23.40;99.90;;;;;;5055155;28;20052;-68
2023/08/24 12:27:23;;;;;;;56.45;50.78;;;20.50;99.90;;;;;;5045018;28;20090;-68